Time;durP1;ratioP1;P1;durP2;ratioP2;P2;SDS_P1;SDS_P2;PMS_P1;PMS_P2;Temp;Humidity;BMP_temperature;BMP_pressure;BME280_temperature;BME280_humidity;BME280_pressure;Samples;Min_cycle;Max_cycle;Signal;HPM_P1;HPM_P2
2021/07/10 00:00:19;;;;;;;13.28;7.18;;;;;;;19.55;71.16;100022.30;129901;1093;24012;-63
2021/07/10 00:02:48;;;;;;;14.00;7.43;;;;;;;19.57;71.15;100019.23;129938;1092;114040;-63
2021/07/10 00:05:17;;;;;;;8.58;7.25;;;;;;;19.58;71.17;100018.93;130049;1093;23530;-64
2021/07/10 00:07:46;;;;;;;10.65;7.43;;;;;;;19.60;71.20;100021.39;129967;1092;114089;-64
2021/07/10 00:10:16;;;;;;;14.48;7.10;;;;;;;19.60;71.32;100018.63;130059;1092;23188;-64
2021/07/10 00:12:47;;;;;;;12.13;7.40;;;;;;;19.60;71.59;100022.22;130046;1092;22562;-64
2021/07/10 00:15:18;;;;;;;13.38;8.25;;;;;;;19.59;71.06;100019.75;129800;1093;114077;-64
2021/07/10 00:17:49;;;;;;;10.18;7.20;;;;;;;19.57;71.10;100019.23;130052;1093;22549;-64
2021/07/10 00:20:18;;;;;;;13.23;8.00;;;;;;;19.57;71.06;100016.47;129956;1093;113934;-64
2021/07/10 00:22:47;;;;;;;10.13;7.98;;;;;;;19.59;71.07;100017.80;130035;1092;23059;-64
2021/07/10 00:25:16;;;;;;;11.10;7.68;;;;;;;19.65;71.00;100012.98;129966;1093;114504;-64
2021/07/10 00:27:46;;;;;;;13.90;7.50;;;;;;;19.68;70.79;100004.91;129865;1093;22570;-64
2021/07/10 00:30:17;;;;;;;12.78;7.95;;;;;;;19.70;70.71;99997.13;129861;1093;23380;-64
2021/07/10 00:32:46;;;;;;;11.63;8.05;;;;;;;19.70;70.97;99991.59;129929;1093;114262;-64
2021/07/10 00:35:18;;;;;;;18.50;7.30;;;;;;;19.69;70.90;99991.90;129890;1093;23754;-64
2021/07/10 00:37:47;;;;;;;13.33;6.60;;;;;;;19.66;70.75;99987.80;129784;1093;115452;-64
2021/07/10 00:40:21;;;;;;;18.60;6.78;;;;;;;19.64;70.66;99991.98;130059;1093;22570;-64
2021/07/10 00:42:50;;;;;;;9.73;6.38;;;;;;;19.59;70.86;99984.64;130029;1093;22646;-64
2021/07/10 00:45:19;;;;;;;15.33;6.88;;;;;;;19.56;70.70;99992.72;129954;1093;114073;-64
2021/07/10 00:47:50;;;;;;;16.58;7.60;;;;;;;19.50;70.86;99985.63;129808;1093;22633;-64
2021/07/10 00:50:23;;;;;;;9.63;7.00;;;;;;;19.46;71.22;99990.13;129927;1093;114831;-64
2021/07/10 00:52:52;;;;;;;9.78;7.35;;;;;;;19.40;71.42;99981.09;130047;1092;23777;-64
2021/07/10 00:55:21;;;;;;;14.05;7.30;;;;;;;19.35;71.11;99981.18;129914;1092;114025;-64
2021/07/10 00:57:50;;;;;;;14.60;7.93;;;;;;;19.30;71.13;99984.06;129974;1093;22520;-64
2021/07/10 01:00:21;;;;;;;14.95;7.53;;;;;;;19.23;71.21;99980.86;129788;1092;23119;-64
2021/07/10 01:02:51;;;;;;;15.30;8.40;;;;;;;19.16;71.38;99981.27;129963;1092;114398;-64
2021/07/10 01:05:25;;;;;;;14.08;8.70;;;;;;;19.13;71.76;99973.58;130006;1092;22567;-64
2021/07/10 01:07:59;;;;;;;12.68;8.28;;;;;;;19.11;72.02;99978.59;129946;1092;114417;-64
2021/07/10 01:10:48;;;;;;;10.28;7.45;;;;;;;19.08;72.26;99973.66;130038;1093;22569;-64
2021/07/10 01:13:18;;;;;;;13.53;8.15;;;;;;;19.05;72.54;99975.08;129715;1092;115323;-64
2021/07/10 01:15:55;;;;;;;15.63;8.73;;;;;;;19.00;72.52;99969.66;129992;1093;22846;-65
2021/07/10 01:18:25;;;;;;;12.18;8.00;;;;;;;18.98;72.72;99971.91;129864;1092;22602;-64
2021/07/10 01:21:12;;;;;;;10.75;8.28;;;;;;;18.95;72.86;99966.16;129913;1093;114027;-64
2021/07/10 01:23:41;;;;;;;16.53;8.33;;;;;;;18.91;72.78;99965.12;130011;1093;22532;-64
2021/07/10 01:26:10;;;;;;;12.65;7.95;;;;;;;18.89;73.06;99964.63;129902;1093;114568;-64
2021/07/10 01:28:39;;;;;;;12.50;8.25;;;;;;;18.88;73.23;99963.81;130000;1092;22609;-64
2021/07/10 01:31:08;;;;;;;11.10;7.80;;;;;;;18.88;73.83;99972.09;130366;1085;114157;-64
2021/07/10 01:33:38;;;;;;;12.90;8.90;;;;;;;18.87;73.44;99973.21;130471;1087;22589;-64
2021/07/10 01:36:07;;;;;;;13.33;9.18;;;;;;;18.84;73.25;99965.52;130490;1087;23673;-64
2021/07/10 01:38:36;;;;;;;16.13;8.95;;;;;;;18.81;73.28;99957.84;130377;1087;114099;-64
2021/07/10 01:41:05;;;;;;;17.08;8.88;;;;;;;18.79;73.38;99960.08;130543;1086;22571;-64
2021/07/10 01:43:33;;;;;;;16.18;8.20;;;;;;;18.77;73.74;99955.97;130405;1087;113914;-64
2021/07/10 01:46:02;;;;;;;14.48;8.33;;;;;;;18.73;73.79;99964.06;130517;1086;23099;-64
2021/07/10 01:48:32;;;;;;;17.80;8.95;;;;;;;18.70;74.44;99954.44;130507;1086;22568;-64
2021/07/10 01:51:01;;;;;;;13.43;8.53;;;;;;;18.66;74.35;99950.63;130428;1087;113713;-65
2021/07/10 01:53:35;;;;;;;10.00;7.78;;;;;;;18.65;74.40;99957.27;130549;1086;22545;-64
2021/07/10 01:56:04;;;;;;;17.53;8.85;;;;;;;18.64;74.50;99958.39;130425;1087;113710;-64
2021/07/10 01:58:32;;;;;;;10.88;7.35;;;;;;;18.64;74.18;99955.63;130497;1087;22550;-64
2021/07/10 02:01:02;;;;;;;14.93;9.15;;;;;;;18.63;74.43;99955.92;130534;1086;22510;-64
2021/07/10 02:03:30;;;;;;;15.45;8.43;;;;;;;18.61;74.61;99952.67;130416;1087;113434;-64
2021/07/10 02:05:59;;;;;;;11.65;9.08;;;;;;;18.62;74.63;99955.10;130538;1087;23121;-64
2021/07/10 02:08:29;;;;;;;20.98;9.90;;;;;;;18.63;74.58;99955.92;130347;1087;113745;-64
2021/07/10 02:10:58;;;;;;;15.00;8.20;;;;;;;18.65;74.48;99950.92;130544;1087;23367;-64
2021/07/10 02:13:27;;;;;;;18.15;9.60;;;;;;;18.69;74.49;99950.03;130413;1086;113713;-64
2021/07/10 02:15:57;;;;;;;16.18;7.70;;;;;;;18.75;74.39;99952.72;130477;1086;22528;-64
2021/07/10 02:18:26;;;;;;;15.13;9.08;;;;;;;18.82;74.27;99944.86;130524;1086;23024;-64
2021/07/10 02:20:58;;;;;;;14.00;7.58;;;;;;;18.86;74.20;99941.20;130398;1087;114109;-64
2021/07/10 02:23:42;;;;;;;16.70;8.73;;;;;;;18.93;73.94;99951.84;130525;1086;22763;-64
2021/07/10 02:26:11;;;;;;;15.48;8.23;;;;;;;18.98;73.85;99946.23;130417;1086;114143;-65
2021/07/10 02:28:41;;;;;;;16.53;7.75;;;;;;;19.05;73.67;99949.41;130526;1087;22585;-64
2021/07/10 02:31:10;;;;;;;10.85;7.40;;;;;;;19.13;73.66;99945.14;130406;1085;113835;-65
2021/07/10 02:33:39;;;;;;;10.18;7.33;;;;;;;19.20;73.46;99946.36;130491;1087;22533;-64
2021/07/10 02:36:08;;;;;;;11.03;8.05;;;;;;;19.26;73.48;99936.87;130503;1085;23053;-64
2021/07/10 02:38:37;;;;;;;11.80;7.63;;;;;;;19.31;73.36;99939.55;130409;1087;114088;-64
2021/07/10 02:41:06;;;;;;;11.58;7.45;;;;;;;19.37;73.27;99937.48;130498;1087;22502;-64
2021/07/10 02:43:35;;;;;;;11.18;7.25;;;;;;;19.42;73.12;99934.64;130418;1086;113756;-64
2021/07/10 02:46:04;;;;;;;12.83;7.25;;;;;;;19.45;73.36;99944.27;130513;1086;22546;-64
2021/07/10 02:48:33;;;;;;;10.38;7.40;;;;;;;19.48;73.27;99943.66;130494;1087;22564;-65
2021/07/10 02:51:04;;;;;;;11.28;6.90;;;;;;;19.50;73.36;99946.94;130388;1087;113272;-64
2021/07/10 02:53:35;;;;;;;11.70;7.18;;;;;;;19.53;73.22;99944.39;130531;1087;23266;-65
2021/07/10 02:56:04;;;;;;;15.48;8.95;;;;;;;19.62;72.61;99950.03;130409;1086;113949;-64
2021/07/10 02:58:32;;;;;;;15.78;7.38;;;;;;;19.75;72.25;99941.73;130530;1087;24468;-64
2021/07/10 03:01:01;;;;;;;12.38;7.43;;;;;;;19.88;72.30;99940.08;130475;1087;23352;-64
2021/07/10 03:03:30;;;;;;;9.00;7.58;;;;;;;19.98;72.47;99945.38;130401;1087;113773;-65
2021/07/10 03:05:59;;;;;;;10.13;6.93;;;;;;;20.09;72.45;99949.55;130496;1087;22522;-64
2021/07/10 03:08:30;;;;;;;12.25;7.50;;;;;;;20.19;72.48;99942.17;130422;1087;114046;-65
2021/07/10 03:10:59;;;;;;;9.70;7.35;;;;;;;20.28;72.70;99931.99;130504;1087;22541;-65
2021/07/10 03:13:28;;;;;;;11.38;6.98;;;;;;;20.35;72.76;99937.90;130407;1087;114043;-64
2021/07/10 03:15:56;;;;;;;12.93;7.23;;;;;;;20.44;72.80;99945.20;130502;1088;22554;-64
2021/07/10 03:18:25;;;;;;;9.05;7.00;;;;;;;20.53;72.92;99945.25;130514;1087;23064;-65
2021/07/10 03:20:55;;;;;;;13.43;7.93;;;;;;;20.61;72.93;99936.21;130401;1087;113676;-65
2021/07/10 03:23:25;;;;;;;11.83;6.75;;;;;;;20.69;70.89;99929.91;130504;1085;22539;-65
2021/07/10 03:25:54;;;;;;;11.85;7.78;;;;;;;20.83;70.01;99927.88;130401;1087;113975;-65
2021/07/10 03:28:22;;;;;;;15.30;7.43;;;;;;;21.00;69.35;99935.48;130525;1085;22546;-65
2021/07/10 03:30:52;;;;;;;11.88;7.88;;;;;;;21.16;69.00;99933.95;130484;1087;22528;-65
2021/07/10 03:33:21;;;;;;;11.58;6.35;;;;;;;21.32;68.53;99928.84;130373;1087;114314;-65
2021/07/10 03:35:50;;;;;;;16.20;7.50;;;;;;;21.46;68.21;99926.78;130497;1086;23959;-65
2021/07/10 03:38:19;;;;;;;14.80;7.25;;;;;;;21.58;67.66;99930.89;130408;1085;114349;-65
2021/07/10 03:40:49;;;;;;;13.68;7.38;;;;;;;21.70;67.14;99928.31;130527;1085;22570;-64
2021/07/10 03:43:18;;;;;;;13.28;7.50;;;;;;;21.81;66.70;99932.42;130404;1086;114522;-64
2021/07/10 03:45:47;;;;;;;14.48;7.03;;;;;;;21.90;66.67;99924.95;130471;1087;23530;-64
2021/07/10 03:48:15;;;;;;;9.13;6.30;;;;;;;22.00;66.34;99924.67;130494;1087;23116;-64
2021/07/10 03:50:44;;;;;;;13.45;7.48;;;;;;;22.09;66.06;99919.94;130419;1087;113705;-63
2021/07/10 03:53:13;;;;;;;13.83;7.60;;;;;;;22.18;65.49;99925.52;130504;1087;22559;-63
2021/07/10 03:56:00;;;;;;;10.58;7.48;;;;;;;22.27;65.15;99926.33;130406;1085;113763;-63
2021/07/10 03:58:28;;;;;;;16.28;8.88;;;;;;;22.34;65.04;99923.08;130532;1085;22571;-63
2021/07/10 04:00:57;;;;;;;13.73;8.50;;;;;;;22.42;64.76;99922.25;130510;1086;22531;-63
2021/07/10 04:03:26;;;;;;;12.33;8.73;;;;;;;22.47;64.36;99928.47;130434;1086;113928;-63
2021/07/10 04:05:55;;;;;;;17.23;9.18;;;;;;;22.52;64.52;99919.95;130524;1085;23102;-63
2021/07/10 04:08:24;;;;;;;23.98;10.40;;;;;;;22.55;64.59;99915.70;130373;1087;113808;-63
2021/07/10 04:10:53;;;;;;;16.80;9.08;;;;;;;22.59;64.53;99913.91;130473;1085;22526;-63
2021/07/10 04:13:22;;;;;;;14.50;9.48;;;;;;;22.64;64.64;99908.20;130373;1087;114005;-63
2021/07/10 04:15:51;;;;;;;12.63;8.63;;;;;;;22.71;64.39;99910.46;130543;1085;22482;-63
2021/07/10 04:18:20;;;;;;;13.23;8.38;;;;;;;22.77;64.11;99909.19;130536;1087;22560;-63
2021/07/10 04:20:49;;;;;;;11.10;7.73;;;;;;;22.82;63.83;99912.59;130395;1087;113928;-63
2021/07/10 04:23:18;;;;;;;14.20;8.30;;;;;;;22.89;63.83;99906.55;130462;1087;22556;-63
2021/07/10 04:25:47;;;;;;;17.68;9.70;;;;;;;22.95;63.66;99907.16;130429;1087;113864;-63
2021/07/10 04:28:15;;;;;;;14.85;9.40;;;;;;;23.00;64.09;99898.66;130533;1087;22617;-63
2021/07/10 04:30:44;;;;;;;12.83;8.90;;;;;;;23.07;63.77;99896.20;130517;1087;22541;-63
2021/07/10 04:33:13;;;;;;;9.63;7.58;;;;;;;23.14;62.43;99890.93;130414;1086;114294;-63
2021/07/10 04:35:42;;;;;;;12.45;7.10;;;;;;;23.25;61.26;99890.22;130484;1086;22549;-63
2021/07/10 04:38:11;;;;;;;12.98;7.18;;;;;;;23.39;61.20;99886.41;130389;1085;114003;-63
2021/07/10 04:40:40;;;;;;;21.83;7.50;;;;;;;23.49;60.79;99883.27;130490;1086;22592;-63
2021/07/10 04:43:11;;;;;;;17.68;6.28;;;;;;;23.61;60.31;99886.99;130425;1087;114315;-64
2021/07/10 04:46:00;;;;;;;12.08;6.25;;;;;;;23.76;59.63;99876.43;130511;1087;22600;-63
2021/07/10 04:48:29;;;;;;;15.98;7.38;;;;;;;23.87;58.53;99886.01;130514;1086;22520;-63
2021/07/10 04:50:58;;;;;;;13.93;5.93;;;;;;;24.00;58.03;99878.55;130409;1086;114275;-63
2021/07/10 04:53:44;;;;;;;7.98;5.53;;;;;;;24.10;57.24;99878.95;130538;1087;22559;-63
2021/07/10 04:56:12;;;;;;;12.00;5.85;;;;;;;24.22;57.95;99875.45;130431;1087;113751;-63
2021/07/10 04:58:43;;;;;;;12.00;5.88;;;;;;;24.31;57.44;99878.98;130494;1087;22581;-63
2021/07/10 05:01:13;;;;;;;10.65;5.80;;;;;;;24.41;57.57;99881.34;130396;1086;114098;-63
2021/07/10 05:03:41;;;;;;;14.28;5.85;;;;;;;24.50;56.40;99876.53;130493;1086;22569;-63
2021/07/10 05:06:11;;;;;;;9.80;5.55;;;;;;;24.58;56.48;99877.59;130528;1086;23669;-63
2021/07/10 05:08:58;;;;;;;8.20;5.60;;;;;;;24.68;55.98;99864.03;130428;1085;113643;-63
2021/07/10 05:11:44;;;;;;;11.60;5.90;;;;;;;24.82;55.37;99862.91;130468;1087;22554;-63
2021/07/10 05:14:14;;;;;;;12.00;5.60;;;;;;;24.90;54.65;99865.63;130378;1087;114929;-63
2021/07/10 05:16:43;;;;;;;9.50;5.33;;;;;;;25.02;55.01;99870.43;130447;1087;22469;-64
2021/07/10 05:19:12;;;;;;;12.60;5.28;;;;;;;25.15;54.50;99874.86;130386;1087;114287;-63
2021/07/10 05:21:41;;;;;;;11.03;6.18;;;;;;;25.33;54.18;99869.89;130470;1087;22540;-63
2021/07/10 05:24:10;;;;;;;7.95;5.55;;;;;;;25.53;52.86;99865.37;130486;1086;22584;-64
2021/07/10 05:26:40;;;;;;;10.23;5.70;;;;;;;25.77;52.82;99872.93;130383;1087;113845;-63
2021/07/10 05:29:09;;;;;;;8.58;5.03;;;;;;;26.05;51.50;99871.83;130482;1086;22518;-64
2021/07/10 05:31:38;;;;;;;7.85;5.00;;;;;;;26.38;51.31;99876.42;130369;1085;113989;-63
2021/07/10 05:34:07;;;;;;;7.98;5.10;;;;;;;26.74;50.97;99878.23;130500;1087;23145;-63
2021/07/10 05:36:36;;;;;;;11.60;5.63;;;;;;;27.14;49.71;99878.13;130528;1087;23319;-63
2021/07/10 05:39:08;;;;;;;9.30;5.08;;;;;;;27.51;48.39;99875.06;130415;1086;115499;-59
2021/07/10 05:41:37;;;;;;;12.63;5.45;;;;;;;27.77;47.40;99870.53;130486;1087;22526;-64
2021/07/10 05:44:06;;;;;;;12.10;5.13;;;;;;;27.89;47.23;99877.19;130419;1087;114317;-64
2021/07/10 05:46:35;;;;;;;8.23;5.40;;;;;;;28.02;46.57;99882.30;130537;1085;23341;-63
2021/07/10 05:49:04;;;;;;;7.50;5.10;;;;;;;28.21;47.12;99891.94;130508;1085;22546;-64
2021/07/10 05:51:33;;;;;;;9.00;5.30;;;;;;;28.42;45.65;99884.00;130397;1087;113900;-63
2021/07/10 05:54:02;;;;;;;6.38;5.20;;;;;;;28.61;45.07;99885.97;130466;1087;22496;-64
2021/07/10 05:56:31;;;;;;;8.35;5.10;;;;;;;28.63;44.75;99878.81;130416;1087;113803;-64
2021/07/10 05:59:00;;;;;;;15.58;5.30;;;;;;;28.63;45.30;99875.20;130500;1085;22546;-64
2021/07/10 06:01:30;;;;;;;13.18;5.33;;;;;;;28.67;44.71;99881.70;130382;1087;114114;-64
2021/07/10 06:03:59;;;;;;;11.03;4.70;;;;;;;28.65;44.63;99887.67;130504;1087;23085;-64
2021/07/10 06:06:28;;;;;;;7.83;5.08;;;;;;;28.64;44.70;99883.24;130400;1087;22648;-63
2021/07/10 06:09:00;;;;;;;6.53;4.83;;;;;;;28.59;44.84;99889.14;130304;1087;115363;-63
2021/07/10 06:11:34;;;;;;;9.03;5.73;;;;;;;28.49;44.77;99879.34;130479;1087;22883;-62
2021/07/10 06:14:08;;;;;;;7.50;5.05;;;;;;;28.41;44.82;99886.00;130334;1085;113894;-63
2021/07/10 06:16:41;;;;;;;10.95;5.35;;;;;;;28.29;45.21;99880.51;130445;1087;22552;-63
2021/07/10 06:19:10;;;;;;;11.05;5.88;;;;;;;28.12;45.08;99886.53;130351;1087;115495;-63
2021/07/10 06:21:39;;;;;;;8.25;4.98;;;;;;;28.00;46.06;99881.03;130532;1087;22510;-62
2021/07/10 06:24:08;;;;;;;8.65;5.38;;;;;;;27.94;45.82;99880.52;130456;1087;22530;-62
2021/07/10 06:26:37;;;;;;;8.93;5.30;;;;;;;27.87;45.39;99882.34;130406;1085;114313;-63
2021/07/10 06:29:06;;;;;;;12.58;5.20;;;;;;;27.76;45.81;99888.51;130487;1086;22552;-63
2021/07/10 06:31:35;;;;;;;6.13;5.03;;;;;;;27.64;45.97;99894.22;130360;1087;114038;-61
2021/07/10 06:34:05;;;;;;;9.33;6.25;;;;;;;27.60;45.96;99887.72;130457;1087;23400;-61
2021/07/10 06:36:43;;;;;;;12.28;4.98;;;;;;;27.56;46.07;99886.81;130426;1087;23534;-62
2021/07/10 06:39:12;;;;;;;10.48;5.50;;;;;;;27.53;47.08;99883.91;130172;1087;114028;-62
2021/07/10 06:41:41;;;;;;;8.63;6.20;;;;;;;27.55;46.02;99884.37;125820;1086;22793;-62
2021/07/10 06:44:10;;;;;;;7.63;4.90;;;;;;;27.56;46.20;99888.77;125773;1086;113913;-62
2021/07/10 06:46:39;;;;;;;20.30;6.93;;;;;;;27.51;46.88;99889.88;130402;1086;23076;-62
2021/07/10 06:49:08;;;;;;;7.45;5.48;;;;;;;27.49;46.42;99891.41;130463;1085;22532;-63
2021/07/10 06:51:37;;;;;;;6.50;4.93;;;;;;;27.46;47.28;99882.55;130485;1087;22525;-62
2021/07/10 06:54:06;;;;;;;8.75;5.08;;;;;;;27.51;48.60;99889.88;130404;1087;22988;-63
2021/07/10 06:56:35;;;;;;;9.33;5.13;;;;;;;27.54;47.32;99889.16;130378;1087;113743;-62
2021/07/10 06:59:05;;;;;;;8.80;5.83;;;;;;;27.56;47.29;99900.80;130459;1085;22518;-62
2021/07/10 07:01:33;;;;;;;8.18;5.60;;;;;;;27.59;46.68;99897.29;130409;1087;114030;-62
2021/07/10 07:04:03;;;;;;;6.50;4.70;;;;;;;27.59;45.62;99896.47;130497;1086;22522;-62
2021/07/10 07:06:32;;;;;;;14.00;4.63;;;;;;;27.62;45.98;99896.56;130500;1086;22534;-63
2021/07/10 07:09:01;;;;;;;6.08;4.90;;;;;;;27.68;45.48;99897.11;130408;1086;114033;-63
2021/07/10 07:11:30;;;;;;;7.33;5.25;;;;;;;27.70;45.11;99886.37;130524;1085;22550;-62
2021/07/10 07:14:00;;;;;;;7.38;4.60;;;;;;;27.72;45.02;99889.59;130388;1085;114374;-62
2021/07/10 07:16:29;;;;;;;6.00;4.33;;;;;;;27.76;45.37;99880.11;130533;1086;22530;-63
2021/07/10 07:18:58;;;;;;;6.40;4.33;;;;;;;27.82;45.05;99885.44;130522;1085;22579;-62
2021/07/10 07:21:31;;;;;;;6.93;4.45;;;;;;;27.90;44.99;99887.21;130402;1087;113627;-63
2021/07/10 07:24:00;;;;;;;8.35;4.40;;;;;;;27.96;43.73;99885.77;130501;1087;22540;-62
2021/07/10 07:26:29;;;;;;;12.28;5.05;;;;;;;27.97;44.74;99885.41;130414;1087;113830;-63
2021/07/10 07:29:00;;;;;;;8.33;4.43;;;;;;;28.02;43.89;99881.48;130547;1087;22536;-62
2021/07/10 07:31:29;;;;;;;5.33;4.10;;;;;;;28.08;43.81;99877.23;130428;1087;114393;-63
2021/07/10 07:33:59;;;;;;;7.75;4.65;;;;;;;28.11;44.29;99882.11;130529;1087;22593;-62
2021/07/10 07:36:28;;;;;;;6.13;4.63;;;;;;;28.12;44.37;99872.52;130510;1087;22544;-63
2021/07/10 07:38:56;;;;;;;7.10;5.05;;;;;;;28.12;43.70;99873.34;130398;1087;113842;-62
2021/07/10 07:41:25;;;;;;;10.93;5.50;;;;;;;28.12;43.61;99880.92;125911;1087;22915;-62
2021/07/10 07:43:54;;;;;;;5.75;4.85;;;;;;;28.10;44.24;99866.47;125625;1086;114111;-62
2021/07/10 07:46:24;;;;;;;9.08;4.90;;;;;;;28.21;43.66;99872.33;125855;1087;24291;-62
2021/07/10 07:48:53;;;;;;;7.43;5.07;;;;;;;28.22;43.78;99877.57;125774;1085;22774;-61
2021/07/10 07:51:22;;;;;;;7.10;4.78;;;;;;;28.25;43.78;99876.84;130364;1086;113993;-62
2021/07/10 07:53:53;;;;;;;8.55;4.63;;;;;;;28.30;43.18;99882.13;130530;1085;22541;-62
2021/07/10 07:56:21;;;;;;;8.08;5.00;;;;;;;28.33;42.87;99877.78;130423;1087;114146;-63
2021/07/10 07:58:51;;;;;;;6.53;5.30;;;;;;;28.34;41.58;99880.23;130513;1087;22543;-62
2021/07/10 08:01:20;;;;;;;16.38;5.43;;;;;;;28.30;43.20;99873.72;130388;1087;113657;-62
2021/07/10 08:03:51;;;;;;;11.10;7.93;;;;;;;28.34;42.59;99876.61;130491;1087;22560;-63
2021/07/10 08:06:20;;;;;;;12.13;5.97;;;;;;;28.38;41.88;99878.31;130511;1086;24597;-62
2021/07/10 08:09:03;;;;;;;7.63;5.10;;;;;;;28.41;42.09;99879.58;130394;1087;113959;-62
2021/07/10 08:11:32;;;;;;;6.80;5.20;;;;;;;28.39;40.65;99879.94;130522;1087;22621;-62
2021/07/10 08:14:01;;;;;;;6.95;4.53;;;;;;;28.35;40.81;99876.24;130410;1087;113804;-62
2021/07/10 08:16:31;;;;;;;5.95;4.40;;;;;;;28.32;39.52;99870.55;130538;1086;23611;-62
2021/07/10 08:19:00;;;;;;;5.05;4.48;;;;;;;28.27;41.12;99871.69;130512;1087;23293;-62
2021/07/10 08:21:29;;;;;;;8.25;4.93;;;;;;;28.27;41.57;99868.88;130103;1087;113632;-62
2021/07/10 08:24:00;;;;;;;10.00;5.75;;;;;;;28.30;41.86;99884.13;130523;1087;22594;-62
2021/07/10 08:26:29;;;;;;;7.73;5.13;;;;;;;28.35;41.30;99875.44;130415;1087;113930;-62
2021/07/10 08:28:58;;;;;;;12.48;5.40;;;;;;;28.39;40.71;99882.75;130508;1087;23036;-61
2021/07/10 08:31:28;;;;;;;6.88;4.63;;;;;;;28.41;40.64;99876.77;130380;1087;114105;-62
2021/07/10 08:33:56;;;;;;;8.63;4.45;;;;;;;28.43;40.13;99880.80;130467;1087;22522;-62
2021/07/10 08:36:25;;;;;;;14.93;5.05;;;;;;;28.44;40.22;99876.01;130496;1087;22531;-62
2021/07/10 08:38:54;;;;;;;15.85;5.20;;;;;;;28.47;40.82;99880.88;130428;1085;114213;-62
2021/07/10 08:41:23;;;;;;;21.30;7.10;;;;;;;28.51;41.22;99881.78;126025;1087;24280;-61
2021/07/10 08:43:53;;;;;;;6.63;4.33;;;;;;;28.53;40.17;99878.61;125717;1087;114281;-62
2021/07/10 08:46:22;;;;;;;9.68;5.23;;;;;;;28.52;39.83;99871.38;130448;1086;23330;-62
2021/07/10 08:48:52;;;;;;;8.95;5.13;;;;;;;28.49;40.82;99872.92;130478;1087;22530;-62
2021/07/10 08:51:20;;;;;;;8.25;4.90;;;;;;;28.47;40.70;99866.87;130407;1087;113576;-62
2021/07/10 08:53:50;;;;;;;7.70;4.58;;;;;;;28.47;40.99;99869.67;130503;1087;22533;-62
2021/07/10 08:56:19;;;;;;;6.10;4.90;;;;;;;28.49;41.62;99868.13;130410;1087;113791;-62
2021/07/10 08:58:48;;;;;;;5.25;4.20;;;;;;;28.52;41.76;99862.97;130537;1087;22564;-62
2021/07/10 09:01:16;;;;;;;42.63;6.60;;;;;;;28.56;41.19;99869.47;130414;1086;113827;-62
2021/07/10 09:03:46;;;;;;;13.05;5.55;;;;;;;28.57;42.24;99874.67;130471;1087;22554;-62
2021/07/10 09:06:15;;;;;;;8.65;5.38;;;;;;;28.54;42.18;99869.83;130468;1087;22571;-62
2021/07/10 09:08:54;;;;;;;9.58;5.38;;;;;;;28.50;41.84;99869.75;130394;1087;113732;-62
2021/07/10 09:11:31;;;;;;;6.60;5.03;;;;;;;28.48;42.39;99865.69;130479;1087;22517;-62
2021/07/10 09:14:00;;;;;;;8.55;5.43;;;;;;;28.49;42.59;99861.70;130384;1087;114162;-62
2021/07/10 09:16:34;;;;;;;8.83;4.78;;;;;;;28.51;42.37;99859.35;130499;1087;23473;-62
2021/07/10 09:19:07;;;;;;;9.23;5.00;;;;;;;28.57;42.07;99857.85;130498;1087;22616;-63
2021/07/10 09:21:40;;;;;;;7.08;4.90;;;;;;;28.63;41.87;99863.98;130394;1087;113579;-62
2021/07/10 09:24:22;;;;;;;7.05;5.08;;;;;;;28.69;42.19;99862.52;130488;1087;22547;-62
2021/07/10 09:26:56;;;;;;;29.23;6.15;;;;;;;28.76;41.63;99865.44;130389;1087;113766;-58
2021/07/10 09:29:29;;;;;;;5.93;5.20;;;;;;;28.82;41.53;99863.99;130484;1086;22541;-59
2021/07/10 09:31:59;;;;;;;9.85;5.23;;;;;;;28.88;40.62;99862.48;130376;1086;113920;-58
2021/07/10 09:34:36;;;;;;;9.65;5.05;;;;;;;28.90;39.63;99854.52;130505;1087;22519;-58
2021/07/10 09:37:09;;;;;;;;;;;;;;;28.94;41.05;99849.79;130502;1087;22643;-59
2021/07/10 09:39:42;;;;;;;5.30;4.40;;;;;;;28.98;40.13;99845.06;129391;1087;99811;-60
2021/07/10 09:42:13;;;;;;;5.30;3.98;;;;;;;29.02;40.22;99847.91;130474;1087;22596;-60
2021/07/10 09:44:46;;;;;;;8.28;5.33;;;;;;;29.07;40.27;99841.99;130365;1087;114014;-60
2021/07/10 09:47:17;;;;;;;10.60;4.75;;;;;;;29.14;38.74;99842.91;130494;1085;22573;-58
2021/07/10 09:49:46;;;;;;;5.53;4.23;;;;;;;29.16;37.61;99834.93;130345;1087;114537;-55
2021/07/10 09:52:17;;;;;;;7.15;5.00;;;;;;;29.13;37.45;99846.12;130509;1087;23360;-58
2021/07/10 09:54:54;;;;;;;7.95;4.60;;;;;;;29.08;38.31;99838.81;130489;1086;24040;-55
2021/07/10 09:57:27;;;;;;;6.10;4.73;;;;;;;29.07;39.67;99834.39;130278;1090;114210;-57
2021/07/10 10:00:10;;;;;;;12.40;4.73;;;;;;;29.11;39.36;99837.27;130405;1090;23259;-56
2021/07/10 10:02:50;;;;;;;8.00;5.00;;;;;;;29.15;39.63;99833.31;130370;1089;114010;-57
2021/07/10 10:05:21;;;;;;;9.28;4.53;;;;;;;29.23;39.06;99830.64;130090;1090;22655;-58
2021/07/10 10:07:52;;;;;;;23.60;5.95;;;;;;;29.29;39.33;99834.77;130033;1089;114811;-56
2021/07/10 10:10:32;;;;;;;7.10;5.33;;;;;;;29.32;38.73;99829.19;130422;1090;23387;-57
2021/07/10 10:13:04;;;;;;;5.75;4.50;;;;;;;29.33;38.19;99824.38;130404;1089;23486;-57
2021/07/10 10:15:44;;;;;;;10.93;4.35;;;;;;;29.29;38.42;99820.73;130319;1090;113486;-56
2021/07/10 10:18:28;;;;;;;5.55;5.05;;;;;;;29.21;38.95;99825.39;130458;1090;22519;-57
2021/07/10 10:20:58;;;;;;;5.60;4.98;;;;;;;29.20;39.44;99832.20;130299;1089;113802;-57
2021/07/10 10:23:26;;;;;;;6.38;4.78;;;;;;;29.16;38.21;99814.48;130365;1090;22691;-57
2021/07/10 10:25:55;;;;;;;7.45;4.75;;;;;;;29.15;38.98;99818.47;130007;1090;114472;-56
2021/07/10 10:28:24;;;;;;;13.53;5.03;;;;;;;29.12;38.91;99825.67;130414;1090;22521;-56
2021/07/10 10:30:55;;;;;;;11.95;4.75;;;;;;;29.15;38.00;99816.47;130469;1089;23502;-56
2021/07/10 10:33:25;;;;;;;10.43;5.03;;;;;;;29.16;38.57;99812.48;130331;1089;115121;-56
2021/07/10 10:35:56;;;;;;;19.05;5.05;;;;;;;29.18;38.78;99812.92;130461;1085;22633;-56
2021/07/10 10:38:25;;;;;;;8.23;5.68;;;;;;;29.19;38.56;99816.54;130375;1087;114381;-57
2021/07/10 10:40:55;;;;;;;10.50;4.80;;;;;;;29.15;38.26;99815.66;126975;1087;22787;-55
2021/07/10 10:43:25;;;;;;;5.40;4.90;;;;;;;29.05;38.34;99811.50;125783;1087;114413;-55
2021/07/10 10:45:55;;;;;;;10.50;5.20;;;;;;;29.00;39.76;99814.61;125837;1087;22773;-55
2021/07/10 10:48:38;;;;;;;41.15;9.50;;;;;;;28.97;39.30;99806.16;130457;1087;23451;-56
2021/07/10 10:52:44;;;;;;;6.70;5.33;;;;;;;28.88;38.67;99799.96;125553;1092;25623;-56
2021/07/10 10:55:18;;;;;;;5.38;4.78;;;;;;;28.85;39.18;99798.73;130090;1091;22556;-60
2021/07/10 10:58:20;;;;;;;8.28;5.55;;;;;;;28.86;38.88;99803.14;129760;1092;113286;-59
2021/07/10 11:00:56;;;;;;;8.03;4.95;;;;;;;28.85;39.47;99793.13;129805;1093;22585;-58
2021/07/10 11:03:42;;;;;;;5.80;5.30;;;;;;;28.85;39.85;99788.30;129743;1093;113475;-58
2021/07/10 11:06:28;;;;;;;14.97;5.70;;;;;;;28.89;40.40;99791.17;129810;1093;22597;-58
2021/07/10 11:08:58;;;;;;;11.53;5.30;;;;;;;28.97;39.49;99795.74;129664;1092;113667;-58
2021/07/10 11:11:32;;;;;;;10.28;5.65;;;;;;;29.01;39.88;99804.20;129831;1093;23233;-59
2021/07/10 11:14:08;;;;;;;8.70;5.65;;;;;;;29.01;38.82;99790.98;129718;1093;113858;-59
2021/07/10 11:16:59;;;;;;;10.67;5.93;;;;;;;29.01;39.47;99782.56;129824;1093;23317;-58
2021/07/10 11:19:45;;;;;;;11.88;5.58;;;;;;;29.03;39.69;99780.20;129719;1093;113950;-58
2021/07/10 11:22:51;;;;;;;8.93;5.55;;;;;;;29.11;40.84;99778.33;129841;1093;24237;-58
2021/07/10 11:25:59;;;;;;;15.18;5.95;;;;;;;29.19;40.24;99780.05;129822;1093;23508;-58
2021/07/10 11:28:30;;;;;;;5.85;5.10;;;;;;;29.29;39.22;99782.21;129824;1093;22608;-58
2021/07/10 11:31:10;;;;;;;6.53;5.00;;;;;;;29.33;38.61;99783.09;129778;1093;22599;-59
2021/07/10 11:34:02;;;;;;;7.48;4.90;;;;;;;29.35;39.00;99774.29;129703;1093;116032;-58
2021/07/10 11:36:31;;;;;;;6.73;4.88;;;;;;;29.35;39.53;99768.67;129840;1093;22540;-58